sensor_id;sensor_type;location;lat;lon;timestamp;pressure;altitude;pressure_sealevel;temperature;humidity
62290;BME280;48284;46.828;29.480;2022-08-19T00:00:22;100656.00;;;28.38;57.63
62290;BME280;48284;46.828;29.480;2022-08-19T00:02:51;100655.75;;;28.39;57.46
62290;BME280;48284;46.828;29.480;2022-08-19T00:05:22;100655.47;;;28.41;57.45
62290;BME280;48284;46.828;29.480;2022-08-19T00:07:50;100658.13;;;28.41;57.44
62290;BME280;48284;46.828;29.480;2022-08-19T00:10:19;100654.41;;;28.37;57.28
62290;BME280;48284;46.828;29.480;2022-08-19T00:12:48;100658.59;;;28.32;57.24
62290;BME280;48284;46.828;29.480;2022-08-19T00:15:19;100667.88;;;28.35;57.48
62290;BME280;48284;46.828;29.480;2022-08-19T00:17:49;100663.13;;;28.37;57.63
62290;BME280;48284;46.828;29.480;2022-08-19T00:20:20;100659.69;;;28.37;57.13
62290;BME280;48284;46.828;29.480;2022-08-19T00:22:49;100661.28;;;28.38;57.23
62290;BME280;48284;46.828;29.480;2022-08-19T00:25:19;100656.00;;;28.38;57.26
62290;BME280;48284;46.828;29.480;2022-08-19T00:27:56;100654.94;;;28.39;57.22
62290;BME280;48284;46.828;29.480;2022-08-19T00:30:26;100659.16;;;28.40;57.02
62290;BME280;48284;46.828;29.480;2022-08-19T00:32:57;100657.31;;;28.40;57.29
62290;BME280;48284;46.828;29.480;2022-08-19T00:35:26;100661.81;;;28.40;57.07
62290;BME280;48284;46.828;29.480;2022-08-19T00:37:55;100660.75;;;28.41;57.32
62290;BME280;48284;46.828;29.480;2022-08-19T00:40:23;100670.25;;;28.37;57.08
62290;BME280;48284;46.828;29.480;2022-08-19T00:42:52;100667.59;;;28.31;57.45
62290;BME280;48284;46.828;29.480;2022-08-19T00:45:25;100671.56;;;28.34;57.22
62290;BME280;48284;46.828;29.480;2022-08-19T00:47:54;100671.31;;;28.36;57.20
62290;BME280;48284;46.828;29.480;2022-08-19T00:50:24;100668.66;;;28.36;57.11
62290;BME280;48284;46.828;29.480;2022-08-19T00:52:53;100660.50;;;28.37;56.89
62290;BME280;48284;46.828;29.480;2022-08-19T00:55:24;100670.00;;;28.38;56.96
62290;BME280;48284;46.828;29.480;2022-08-19T00:57:59;100674.47;;;28.38;56.97
62290;BME280;48284;46.828;29.480;2022-08-19T01:00:29;100669.19;;;28.38;57.14
62290;BME280;48284;46.828;29.480;2022-08-19T01:02:58;100670.78;;;28.39;57.09
62290;BME280;48284;46.828;29.480;2022-08-19T01:05:28;100672.38;;;28.40;56.84
62290;BME280;48284;46.828;29.480;2022-08-19T01:08:00;100668.94;;;28.39;56.54
62290;BME280;48284;46.828;29.480;2022-08-19T01:10:33;100668.16;;;28.39;56.64
62290;BME280;48284;46.828;29.480;2022-08-19T01:13:03;100667.34;;;28.38;56.69
62290;BME280;48284;46.828;29.480;2022-08-19T01:15:34;100670.53;;;28.40;56.62
62290;BME280;48284;46.828;29.480;2022-08-19T01:18:06;100666.31;;;28.39;56.65
62290;BME280;48284;46.828;29.480;2022-08-19T01:20:37;100669.19;;;28.38;56.54
62290;BME280;48284;46.828;29.480;2022-08-19T01:23:08;100673.44;;;28.39;56.41
62290;BME280;48284;46.828;29.480;2022-08-19T01:25:41;100679.50;;;28.39;56.47
62290;BME280;48284;46.828;29.480;2022-08-19T01:28:16;100682.94;;;28.40;56.44
62290;BME280;48284;46.828;29.480;2022-08-19T01:31:00;100678.16;;;28.37;56.29
62290;BME280;48284;46.828;29.480;2022-08-19T01:33:34;100684.25;;;28.37;56.19
62290;BME280;48284;46.828;29.480;2022-08-19T01:36:09;100681.34;;;28.39;56.46
62290;BME280;48284;46.828;29.480;2022-08-19T01:38:42;100685.81;;;28.38;56.50
62290;BME280;48284;46.828;29.480;2022-08-19T01:41:12;100686.88;;;28.37;56.47
62290;BME280;48284;46.828;29.480;2022-08-19T01:43:40;100683.19;;;28.38;56.32
62290;BME280;48284;46.828;29.480;2022-08-19T01:46:29;100678.16;;;28.37;56.39
62290;BME280;48284;46.828;29.480;2022-08-19T01:48:58;100676.28;;;28.32;56.13
62290;BME280;48284;46.828;29.480;2022-08-19T01:51:27;100681.31;;;28.28;56.51
62290;BME280;48284;46.828;29.480;2022-08-19T01:54:07;100679.19;;;28.30;56.40
62290;BME280;48284;46.828;29.480;2022-08-19T01:56:36;100682.63;;;28.31;56.38
62290;BME280;48284;46.828;29.480;2022-08-19T01:59:10;100685.81;;;28.33;56.24
62290;BME280;48284;46.828;29.480;2022-08-19T02:01:40;100683.19;;;28.33;56.33
62290;BME280;48284;46.828;29.480;2022-08-19T02:04:09;100675.22;;;28.28;55.98
62290;BME280;48284;46.828;29.480;2022-08-19T02:06:38;100681.03;;;28.25;56.21
62290;BME280;48284;46.828;29.480;2022-08-19T02:09:08;100681.31;;;28.28;56.27
62290;BME280;48284;46.828;29.480;2022-08-19T02:11:38;100676.81;;;28.29;56.06
62290;BME280;48284;46.828;29.480;2022-08-19T02:14:07;100678.41;;;28.30;55.99
62290;BME280;48284;46.828;29.480;2022-08-19T02:16:37;100681.84;;;28.30;56.14
62290;BME280;48284;46.828;29.480;2022-08-19T02:19:07;100696.63;;;28.31;55.95
62290;BME280;48284;46.828;29.480;2022-08-19T02:21:36;100678.13;;;28.31;56.11
62290;BME280;48284;46.828;29.480;2022-08-19T02:24:05;100681.56;;;28.32;56.07
62290;BME280;48284;46.828;29.480;2022-08-19T02:26:35;100675.25;;;28.33;56.01
62290;BME280;48284;46.828;29.480;2022-08-19T02:29:04;100668.38;;;28.32;55.75
62290;BME280;48284;46.828;29.480;2022-08-19T02:31:33;100671.81;;;28.32;55.87
62290;BME280;48284;46.828;29.480;2022-08-19T02:34:01;100677.91;;;28.33;55.93
62290;BME280;48284;46.828;29.480;2022-08-19T02:36:30;100674.72;;;28.31;56.05
62290;BME280;48284;46.828;29.480;2022-08-19T02:38:59;100674.72;;;28.31;55.82
62290;BME280;48284;46.828;29.480;2022-08-19T02:41:29;100682.38;;;28.32;55.37
62290;BME280;48284;46.828;29.480;2022-08-19T02:44:01;100680.78;;;28.31;55.68
62290;BME280;48284;46.828;29.480;2022-08-19T02:46:51;100688.97;;;28.30;55.71
62290;BME280;48284;46.828;29.480;2022-08-19T02:49:19;100695.03;;;28.30;55.95
62290;BME280;48284;46.828;29.480;2022-08-19T02:51:48;100692.66;;;28.29;55.57
62290;BME280;48284;46.828;29.480;2022-08-19T02:54:16;100701.34;;;28.29;55.62
62290;BME280;48284;46.828;29.480;2022-08-19T02:56:45;100701.63;;;28.28;55.60
62290;BME280;48284;46.828;29.480;2022-08-19T02:59:15;100706.63;;;28.29;55.58
62290;BME280;48284;46.828;29.480;2022-08-19T03:01:48;100699.78;;;28.28;55.58
62290;BME280;48284;46.828;29.480;2022-08-19T03:04:17;100709.28;;;28.29;55.77
62290;BME280;48284;46.828;29.480;2022-08-19T03:06:46;100712.72;;;28.30;55.27
62290;BME280;48284;46.828;29.480;2022-08-19T03:09:16;100719.03;;;28.29;55.62
62290;BME280;48284;46.828;29.480;2022-08-19T03:11:46;100724.06;;;28.30;55.26
62290;BME280;48284;46.828;29.480;2022-08-19T03:14:20;100732.78;;;28.31;55.44
62290;BME280;48284;46.828;29.480;2022-08-19T03:16:51;100733.81;;;28.30;55.33
62290;BME280;48284;46.828;29.480;2022-08-19T03:19:20;100731.97;;;28.30;55.39
62290;BME280;48284;46.828;29.480;2022-08-19T03:21:49;100731.69;;;28.27;55.10
62290;BME280;48284;46.828;29.480;2022-08-19T03:24:19;100739.56;;;28.22;55.44
62290;BME280;48284;46.828;29.480;2022-08-19T03:26:51;100733.81;;;28.25;55.54
62290;BME280;48284;46.828;29.480;2022-08-19T03:29:21;100739.09;;;28.25;55.41
62290;BME280;48284;46.828;29.480;2022-08-19T03:31:57;100746.22;;;28.24;55.11
62290;BME280;48284;46.828;29.480;2022-08-19T03:34:30;100747.00;;;28.25;55.60
62290;BME280;48284;46.828;29.480;2022-08-19T03:37:03;100737.25;;;28.25;55.32
62290;BME280;48284;46.828;29.480;2022-08-19T03:39:33;100734.59;;;28.25;55.36
62290;BME280;48284;46.828;29.480;2022-08-19T03:42:02;100732.75;;;28.26;55.34
62290;BME280;48284;46.828;29.480;2022-08-19T03:44:52;100733.81;;;28.25;55.09
62290;BME280;48284;46.828;29.480;2022-08-19T03:47:21;100728.53;;;28.25;55.38
62290;BME280;48284;46.828;29.480;2022-08-19T03:49:49;100745.16;;;28.25;55.26
62290;BME280;48284;46.828;29.480;2022-08-19T03:52:18;100743.56;;;28.24;55.20
62290;BME280;48284;46.828;29.480;2022-08-19T03:54:47;100747.00;;;28.25;55.19
62290;BME280;48284;46.828;29.480;2022-08-19T03:57:15;100750.44;;;28.25;55.10
62290;BME280;48284;46.828;29.480;2022-08-19T03:59:44;100754.91;;;28.25;55.19
62290;BME280;48284;46.828;29.480;2022-08-19T04:02:14;100755.72;;;28.25;55.10
62290;BME280;48284;46.828;29.480;2022-08-19T04:04:43;100755.97;;;28.24;55.08
62290;BME280;48284;46.828;29.480;2022-08-19T04:07:11;100758.31;;;28.20;54.99
62290;BME280;48284;46.828;29.480;2022-08-19T04:09:43;100764.63;;;28.14;55.19
62290;BME280;48284;46.828;29.480;2022-08-19T04:12:11;100756.44;;;28.16;55.23
62290;BME280;48284;46.828;29.480;2022-08-19T04:14:40;100754.88;;;28.15;54.97
62290;BME280;48284;46.828;29.480;2022-08-19T04:17:09;100751.94;;;28.11;54.87
62290;BME280;48284;46.828;29.480;2022-08-19T04:19:41;100754.31;;;28.08;55.36
62290;BME280;48284;46.828;29.480;2022-08-19T04:22:11;100750.38;;;28.10;55.35
62290;BME280;48284;46.828;29.480;2022-08-19T04:24:39;100746.66;;;28.11;55.25
62290;BME280;48284;46.828;29.480;2022-08-19T04:27:08;100744.56;;;28.13;55.52
62290;BME280;48284;46.828;29.480;2022-08-19T04:29:36;100746.94;;;28.15;55.51
62290;BME280;48284;46.828;29.480;2022-08-19T04:32:06;100752.75;;;28.17;55.45
62290;BME280;48284;46.828;29.480;2022-08-19T04:34:36;100743.00;;;28.17;55.70
62290;BME280;48284;46.828;29.480;2022-08-19T04:37:27;100744.59;;;28.18;55.82
62290;BME280;48284;46.828;29.480;2022-08-19T04:40:04;100735.63;;;28.19;55.78
62290;BME280;48284;46.828;29.480;2022-08-19T04:42:50;100739.84;;;28.20;55.89
62290;BME280;48284;46.828;29.480;2022-08-19T04:45:21;100742.47;;;28.20;55.75
62290;BME280;48284;46.828;29.480;2022-08-19T04:47:54;100745.66;;;28.22;55.50
62290;BME280;48284;46.828;29.480;2022-08-19T04:50:44;100740.09;;;28.19;55.51
62290;BME280;48284;46.828;29.480;2022-08-19T04:53:14;100748.81;;;28.19;55.54
62290;BME280;48284;46.828;29.480;2022-08-19T04:55:43;100741.94;;;28.18;55.26
62290;BME280;48284;46.828;29.480;2022-08-19T04:58:11;100738.50;;;28.18;55.26
62290;BME280;48284;46.828;29.480;2022-08-19T05:00:41;100743.78;;;28.18;55.38
62290;BME280;48284;46.828;29.480;2022-08-19T05:03:10;100744.59;;;28.18;55.14
62290;BME280;48284;46.828;29.480;2022-08-19T05:05:40;100748.28;;;28.17;55.12
62290;BME280;48284;46.828;29.480;2022-08-19T05:08:12;100745.09;;;28.15;55.10
62290;BME280;48284;46.828;29.480;2022-08-19T05:10:43;100741.66;;;28.15;55.03
62290;BME280;48284;46.828;29.480;2022-08-19T05:13:12;100747.75;;;28.15;54.94
62290;BME280;48284;46.828;29.480;2022-08-19T05:15:42;100748.78;;;28.14;54.91
62290;BME280;48284;46.828;29.480;2022-08-19T05:18:11;100749.59;;;28.15;54.69
62290;BME280;48284;46.828;29.480;2022-08-19T05:20:57;100752.47;;;28.13;54.94
62290;BME280;48284;46.828;29.480;2022-08-19T05:23:43;100752.47;;;28.13;54.95
62290;BME280;48284;46.828;29.480;2022-08-19T05:26:13;100756.19;;;28.12;55.07
62290;BME280;48284;46.828;29.480;2022-08-19T05:28:43;100755.91;;;28.14;54.99
62290;BME280;48284;46.828;29.480;2022-08-19T05:31:12;100749.59;;;28.15;55.04
62290;BME280;48284;46.828;29.480;2022-08-19T05:33:40;100761.44;;;28.12;55.21
62290;BME280;48284;46.828;29.480;2022-08-19T05:36:09;100752.47;;;28.13;55.17
62290;BME280;48284;46.828;29.480;2022-08-19T05:38:38;100755.13;;;28.13;55.19
62290;BME280;48284;46.828;29.480;2022-08-19T05:41:07;100759.34;;;28.14;55.48
62290;BME280;48284;46.828;29.480;2022-08-19T05:43:38;100750.38;;;28.15;55.06
62290;BME280;48284;46.828;29.480;2022-08-19T05:46:07;100748.78;;;28.14;55.28
62290;BME280;48284;46.828;29.480;2022-08-19T05:48:36;100750.38;;;28.15;55.13
62290;BME280;48284;46.828;29.480;2022-08-19T05:51:05;100758.03;;;28.17;55.34
62290;BME280;48284;46.828;29.480;2022-08-19T05:53:36;100744.84;;;28.17;55.27
62290;BME280;48284;46.828;29.480;2022-08-19T05:56:05;100751.44;;;28.19;55.28
62290;BME280;48284;46.828;29.480;2022-08-19T05:58:34;100754.63;;;28.21;55.15
62290;BME280;48284;46.828;29.480;2022-08-19T06:01:10;100751.72;;;28.23;54.88
62290;BME280;48284;46.828;29.480;2022-08-19T06:03:40;100756.19;;;28.22;55.19
62290;BME280;48284;46.828;29.480;2022-08-19T06:06:11;100756.78;;;28.24;54.99
62290;BME280;48284;46.828;29.480;2022-08-19T06:08:40;100751.50;;;28.24;54.83
62290;BME280;48284;46.828;29.480;2022-08-19T06:11:19;100758.09;;;28.27;55.00
62290;BME280;48284;46.828;29.480;2022-08-19T06:13:49;100755.72;;;28.25;54.66
62290;BME280;48284;46.828;29.480;2022-08-19T06:16:28;100759.41;;;28.24;54.91
62290;BME280;48284;46.828;29.480;2022-08-19T06:19:00;100757.56;;;28.25;54.94
62290;BME280;48284;46.828;29.480;2022-08-19T06:21:29;100761.00;;;28.25;54.96
62290;BME280;48284;46.828;29.480;2022-08-19T06:23:59;100754.91;;;28.25;54.91
62290;BME280;48284;46.828;29.480;2022-08-19T06:26:28;100757.31;;;28.26;55.11
62290;BME280;48284;46.828;29.480;2022-08-19T06:28:57;100752.81;;;28.27;55.15
62290;BME280;48284;46.828;29.480;2022-08-19T06:31:28;100757.84;;;28.28;54.83
62290;BME280;48284;46.828;29.480;2022-08-19T06:33:58;100755.19;;;28.28;54.96
62290;BME280;48284;46.828;29.480;2022-08-19T06:36:32;100755.72;;;28.30;54.88
62290;BME280;48284;46.828;29.480;2022-08-19T06:39:03;100748.59;;;28.31;54.81
62290;BME280;48284;46.828;29.480;2022-08-19T06:41:35;100748.59;;;28.31;54.75
62290;BME280;48284;46.828;29.480;2022-08-19T06:44:16;100747.03;;;28.30;54.71
62290;BME280;48284;46.828;29.480;2022-08-19T06:46:47;100747.56;;;28.32;54.55
62290;BME280;48284;46.828;29.480;2022-08-19T06:49:21;100756.25;;;28.32;54.70
62290;BME280;48284;46.828;29.480;2022-08-19T06:51:50;100748.34;;;28.32;54.61
62290;BME280;48284;46.828;29.480;2022-08-19T06:54:20;100758.66;;;28.34;54.55
62290;BME280;48284;46.828;29.480;2022-08-19T06:56:58;100763.16;;;28.33;54.72
62290;BME280;48284;46.828;29.480;2022-08-19T06:59:30;100766.59;;;28.34;54.68
62290;BME280;48284;46.828;29.480;2022-08-19T07:02:03;100779.53;;;28.36;54.65
62290;BME280;48284;46.828;29.480;2022-08-19T07:04:35;100770.03;;;28.34;54.59
62290;BME280;48284;46.828;29.480;2022-08-19T07:07:11;100769.75;;;28.36;54.65
62290;BME280;48284;46.828;29.480;2022-08-19T07:09:48;100771.59;;;28.36;54.71
62290;BME280;48284;46.828;29.480;2022-08-19T07:12:30;100774.25;;;28.36;54.86
62290;BME280;48284;46.828;29.480;2022-08-19T07:15:03;100779.53;;;28.36;55.02
62290;BME280;48284;46.828;29.480;2022-08-19T07:17:33;100781.13;;;28.37;54.91
62290;BME280;48284;46.828;29.480;2022-08-19T07:20:06;100767.91;;;28.37;54.78
62290;BME280;48284;46.828;29.480;2022-08-19T07:22:36;100768.72;;;28.37;55.24
62290;BME280;48284;46.828;29.480;2022-08-19T07:25:06;100758.69;;;28.39;55.26
62290;BME280;48284;46.828;29.480;2022-08-19T07:27:36;100760.53;;;28.39;55.19
62290;BME280;48284;46.828;29.480;2022-08-19T07:30:07;100758.69;;;28.39;55.20
62290;BME280;48284;46.828;29.480;2022-08-19T07:32:39;100756.84;;;28.40;55.25
62290;BME280;48284;46.828;29.480;2022-08-19T07:35:09;100760.53;;;28.39;55.26
62290;BME280;48284;46.828;29.480;2022-08-19T07:37:38;100756.84;;;28.40;55.37
62290;BME280;48284;46.828;29.480;2022-08-19T07:40:12;100762.91;;;28.40;55.28
62290;BME280;48284;46.828;29.480;2022-08-19T07:42:40;100766.09;;;28.42;55.17
62290;BME280;48284;46.828;29.480;2022-08-19T07:45:10;100755.53;;;28.42;55.18
62290;BME280;48284;46.828;29.480;2022-08-19T07:47:40;100766.09;;;28.42;55.27
62290;BME280;48284;46.828;29.480;2022-08-19T07:50:24;100752.88;;;28.42;55.37
62290;BME280;48284;46.828;29.480;2022-08-19T07:52:53;100755.25;;;28.44;55.25
62290;BME280;48284;46.828;29.480;2022-08-19T07:55:24;100762.38;;;28.43;55.41
62290;BME280;48284;46.828;29.480;2022-08-19T07:58:10;100779.03;;;28.44;55.35
62290;BME280;48284;46.828;29.480;2022-08-19T08:00:39;100770.03;;;28.45;55.24
62290;BME280;48284;46.828;29.480;2022-08-19T08:03:10;100766.34;;;28.46;55.61
62290;BME280;48284;46.828;29.480;2022-08-19T08:05:39;100760.00;;;28.47;55.48
62290;BME280;48284;46.828;29.480;2022-08-19T08:08:25;100766.34;;;28.46;55.08
62290;BME280;48284;46.828;29.480;2022-08-19T08:11:17;100769.78;;;28.46;55.18
62290;BME280;48284;46.828;29.480;2022-08-19T08:13:47;100781.13;;;28.47;55.38
62290;BME280;48284;46.828;29.480;2022-08-19T08:16:33;100781.13;;;28.47;55.30
62290;BME280;48284;46.828;29.480;2022-08-19T08:19:14;100783.78;;;28.47;55.02
62290;BME280;48284;46.828;29.480;2022-08-19T08:21:54;100772.44;;;28.46;54.87
62290;BME280;48284;46.828;29.480;2022-08-19T08:24:23;100769.00;;;28.46;54.67
62290;BME280;48284;46.828;29.480;2022-08-19T08:26:54;100768.72;;;28.47;54.42
62290;BME280;48284;46.828;29.480;2022-08-19T08:29:24;100782.72;;;28.48;54.61
62290;BME280;48284;46.828;29.480;2022-08-19T08:32:01;100772.44;;;28.46;54.12
62290;BME280;48284;46.828;29.480;2022-08-19T08:34:42;100768.72;;;28.47;54.28
62290;BME280;48284;46.828;29.480;2022-08-19T08:37:16;100783.50;;;28.48;54.76
62290;BME280;48284;46.828;29.480;2022-08-19T08:39:44;100785.91;;;28.50;55.04
62290;BME280;48284;46.828;29.480;2022-08-19T08:42:22;100776.91;;;28.51;55.13
62290;BME280;48284;46.828;29.480;2022-08-19T08:44:57;100770.06;;;28.50;55.52
62290;BME280;48284;46.828;29.480;2022-08-19T08:47:31;100761.88;;;28.51;55.68
62290;BME280;48284;46.828;29.480;2022-08-19T08:50:06;100762.66;;;28.52;55.46
62290;BME280;48284;46.828;29.480;2022-08-19T08:52:43;100772.97;;;28.53;55.73
62290;BME280;48284;46.828;29.480;2022-08-19T08:55:15;100770.59;;;28.52;55.44
62290;BME280;48284;46.828;29.480;2022-08-19T08:57:51;100772.44;;;28.51;55.77
62290;BME280;48284;46.828;29.480;2022-08-19T09:00:26;100780.34;;;28.51;55.62
62290;BME280;48284;46.828;29.480;2022-08-19T09:02:57;100769.78;;;28.51;55.59
62290;BME280;48284;46.828;29.480;2022-08-19T09:05:35;100773.22;;;28.52;55.52
62290;BME280;48284;46.828;29.480;2022-08-19T09:08:25;100776.66;;;28.52;55.64
62290;BME280;48284;46.828;29.480;2022-08-19T09:10:57;100764.50;;;28.51;55.45
62290;BME280;48284;46.828;29.480;2022-08-19T09:13:32;100772.97;;;28.53;55.05
62290;BME280;48284;46.828;29.480;2022-08-19T09:16:06;100772.97;;;28.53;55.39
62290;BME280;48284;46.828;29.480;2022-08-19T09:18:39;100772.69;;;28.55;55.35
62290;BME280;48284;46.828;29.480;2022-08-19T09:21:10;100770.84;;;28.55;55.41
62290;BME280;48284;46.828;29.480;2022-08-19T09:23:39;100767.41;;;28.55;55.41
62290;BME280;48284;46.828;29.480;2022-08-19T09:26:10;100767.16;;;28.56;55.40
62290;BME280;48284;46.828;29.480;2022-08-19T09:28:44;100770.59;;;28.57;55.40
62290;BME280;48284;46.828;29.480;2022-08-19T09:31:17;100769.00;;;28.56;55.52
62290;BME280;48284;46.828;29.480;2022-08-19T09:33:47;100770.59;;;28.57;55.15
62290;BME280;48284;46.828;29.480;2022-08-19T09:36:20;100764.25;;;28.58;54.94
62290;BME280;48284;46.828;29.480;2022-08-19T09:39:02;100763.47;;;28.57;54.89
62290;BME280;48284;46.828;29.480;2022-08-19T09:41:42;100764.25;;;28.58;54.67
62290;BME280;48284;46.828;29.480;2022-08-19T09:44:13;100756.34;;;28.58;54.33
62290;BME280;48284;46.828;29.480;2022-08-19T09:46:42;100765.06;;;28.58;53.72
62290;BME280;48284;46.828;29.480;2022-08-19T09:49:10;100764.25;;;28.58;53.74
62290;BME280;48284;46.828;29.480;2022-08-19T09:51:40;100758.19;;;28.57;53.53
62290;BME280;48284;46.828;29.480;2022-08-19T09:54:17;100756.59;;;28.56;53.65
62290;BME280;48284;46.828;29.480;2022-08-19T09:56:51;100760.03;;;28.57;53.48
62290;BME280;48284;46.828;29.480;2022-08-19T09:59:20;100755.28;;;28.54;53.63
62290;BME280;48284;46.828;29.480;2022-08-19T10:01:48;100745.50;;;28.49;53.49
62290;BME280;48284;46.828;29.480;2022-08-19T10:04:18;100750.25;;;28.52;53.16
62290;BME280;48284;46.828;29.480;2022-08-19T10:06:50;100750.78;;;28.54;53.26
62290;BME280;48284;46.828;29.480;2022-08-19T10:09:19;100755.81;;;28.56;52.91
62290;BME280;48284;46.828;29.480;2022-08-19T10:11:52;100749.72;;;28.55;52.84
62290;BME280;48284;46.828;29.480;2022-08-19T10:14:21;100750.53;;;28.56;53.28
62290;BME280;48284;46.828;29.480;2022-08-19T10:16:50;100754.75;;;28.57;53.04
62290;BME280;48284;46.828;29.480;2022-08-19T10:19:19;100760.81;;;28.57;52.79
62290;BME280;48284;46.828;29.480;2022-08-19T10:21:53;100758.19;;;28.57;52.74
62290;BME280;48284;46.828;29.480;2022-08-19T10:24:26;100752.91;;;28.57;52.68
62290;BME280;48284;46.828;29.480;2022-08-19T10:26:55;100758.97;;;28.58;52.38
62290;BME280;48284;46.828;29.480;2022-08-19T10:29:26;100757.13;;;28.58;52.19
62290;BME280;48284;46.828;29.480;2022-08-19T10:31:58;100748.41;;;28.58;52.22
62290;BME280;48284;46.828;29.480;2022-08-19T10:34:30;100759.78;;;28.58;52.42
62290;BME280;48284;46.828;29.480;2022-08-19T10:37:00;100757.94;;;28.59;52.13
62290;BME280;48284;46.828;29.480;2022-08-19T10:39:30;100764.25;;;28.58;52.18
62290;BME280;48284;46.828;29.480;2022-08-19T10:42:10;100757.13;;;28.58;52.25
62290;BME280;48284;46.828;29.480;2022-08-19T10:44:40;100755.28;;;28.59;52.78
62290;BME280;48284;46.828;29.480;2022-08-19T10:47:10;100757.94;;;28.59;53.10
62290;BME280;48284;46.828;29.480;2022-08-19T10:49:52;100762.16;;;28.60;52.73
62290;BME280;48284;46.828;29.480;2022-08-19T10:52:40;100762.94;;;28.60;52.63
62290;BME280;48284;46.828;29.480;2022-08-19T10:55:18;100770.59;;;28.62;52.75
62290;BME280;48284;46.828;29.480;2022-08-19T10:58:09;100775.88;;;28.57;52.44
62290;BME280;48284;46.828;29.480;2022-08-19T11:00:38;100765.31;;;28.52;51.90
62290;BME280;48284;46.828;29.480;2022-08-19T11:03:07;100762.13;;;28.55;51.62
62290;BME280;48284;46.828;29.480;2022-08-19T11:05:36;100771.66;;;28.56;51.63
62290;BME280;48284;46.828;29.480;2022-08-19T11:08:08;100769.53;;;28.58;51.50
62290;BME280;48284;46.828;29.480;2022-08-19T11:10:51;100759.25;;;28.56;51.44
62290;BME280;48284;46.828;29.480;2022-08-19T11:13:26;100756.59;;;28.56;51.32
62290;BME280;48284;46.828;29.480;2022-08-19T11:16:00;100759.78;;;28.58;51.26
62290;BME280;48284;46.828;29.480;2022-08-19T11:18:35;100762.69;;;28.57;51.47
62290;BME280;48284;46.828;29.480;2022-08-19T11:21:07;100761.63;;;28.58;51.77
62290;BME280;48284;46.828;29.480;2022-08-19T11:23:37;100756.34;;;28.58;51.37
62290;BME280;48284;46.828;29.480;2022-08-19T11:26:06;100765.06;;;28.58;51.25
62290;BME280;48284;46.828;29.480;2022-08-19T11:28:35;100757.94;;;28.59;51.63
62290;BME280;48284;46.828;29.480;2022-08-19T11:31:04;100756.06;;;28.59;50.76
62290;BME280;48284;46.828;29.480;2022-08-19T11:33:32;100757.41;;;28.57;51.19
62290;BME280;48284;46.828;29.480;2022-08-19T11:36:01;100749.47;;;28.52;51.73
62290;BME280;48284;46.828;29.480;2022-08-19T11:38:30;100746.31;;;28.55;51.64
62290;BME280;48284;46.828;29.480;2022-08-19T11:41:02;100746.84;;;28.57;51.61
62290;BME280;48284;46.828;29.480;2022-08-19T11:43:31;100743.94;;;28.58;51.95
62290;BME280;48284;46.828;29.480;2022-08-19T11:46:04;100739.19;;;28.60;51.87
62290;BME280;48284;46.828;29.480;2022-08-19T11:48:34;100739.72;;;28.62;51.61
62290;BME280;48284;46.828;29.480;2022-08-19T11:51:05;100743.94;;;28.63;51.46
62290;BME280;48284;46.828;29.480;2022-08-19T11:53:34;100750.81;;;28.64;51.51
62290;BME280;48284;46.828;29.480;2022-08-19T11:56:06;100743.66;;;28.65;51.60
62290;BME280;48284;46.828;29.480;2022-08-19T11:58:36;100740.25;;;28.64;51.83
62290;BME280;48284;46.828;29.480;2022-08-19T12:01:06;100743.66;;;28.65;51.99
62290;BME280;48284;46.828;29.480;2022-08-19T12:03:35;100733.91;;;28.65;51.90
62290;BME280;48284;46.828;29.480;2022-08-19T12:06:05;100734.69;;;28.66;52.03
62290;BME280;48284;46.828;29.480;2022-08-19T12:08:34;100729.41;;;28.66;51.69
62290;BME280;48284;46.828;29.480;2022-08-19T12:11:02;100728.63;;;28.65;51.87
62290;BME280;48284;46.828;29.480;2022-08-19T12:13:33;100731.25;;;28.65;51.58
62290;BME280;48284;46.828;29.480;2022-08-19T12:16:07;100726.78;;;28.66;52.06
62290;BME280;48284;46.828;29.480;2022-08-19T12:18:36;100726.78;;;28.66;52.09
62290;BME280;48284;46.828;29.480;2022-08-19T12:21:05;100724.13;;;28.66;52.17
62290;BME280;48284;46.828;29.480;2022-08-19T12:23:34;100723.06;;;28.67;51.76
62290;BME280;48284;46.828;29.480;2022-08-19T12:26:04;100719.38;;;28.68;51.76
62290;BME280;48284;46.828;29.480;2022-08-19T12:28:34;100718.31;;;28.69;51.53
62290;BME280;48284;46.828;29.480;2022-08-19T12:31:03;100713.84;;;28.70;51.45
62290;BME280;48284;46.828;29.480;2022-08-19T12:33:32;100713.56;;;28.71;51.55
62290;BME280;48284;46.828;29.480;2022-08-19T12:36:02;100717.25;;;28.70;51.75
62290;BME280;48284;46.828;29.480;2022-08-19T12:38:32;100718.84;;;28.71;51.59
62290;BME280;48284;46.828;29.480;2022-08-19T12:41:03;100711.97;;;28.70;51.62
62290;BME280;48284;46.828;29.480;2022-08-19T12:43:36;100710.94;;;28.71;51.14
62290;BME280;48284;46.828;29.480;2022-08-19T12:46:05;100699.56;;;28.71;51.55
62290;BME280;48284;46.828;29.480;2022-08-19T12:48:38;100708.28;;;28.71;51.38
62290;BME280;48284;46.828;29.480;2022-08-19T12:51:10;100705.38;;;28.73;50.94
62290;BME280;48284;46.828;29.480;2022-08-19T12:53:39;100700.09;;;28.73;51.48
62290;BME280;48284;46.828;29.480;2022-08-19T12:56:09;100708.03;;;28.73;51.60
62290;BME280;48284;46.828;29.480;2022-08-19T12:58:41;100696.66;;;28.72;51.29
62290;BME280;48284;46.828;29.480;2022-08-19T13:01:19;100694.81;;;28.73;50.97
62290;BME280;48284;46.828;29.480;2022-08-19T13:03:49;100693.75;;;28.74;50.85